sensor_id;sensor_type;location;lat;lon;timestamp;pressure;altitude;pressure_sealevel;temperature;humidity
56632;BME280;42503;39.928;-75.152;2023-01-20T00:04:40;100285.53;;;20.67;43.89
56632;BME280;42503;39.928;-75.152;2023-01-20T00:14:41;100267.09;;;20.76;44.04
56632;BME280;42503;39.928;-75.152;2023-01-20T00:24:43;100268.75;;;20.77;43.83
56632;BME280;42503;39.928;-75.152;2023-01-20T00:34:44;100245.66;;;20.77;43.34
56632;BME280;42503;39.928;-75.152;2023-01-20T00:44:51;100192.09;;;20.71;43.61
56632;BME280;42503;39.928;-75.152;2023-01-20T00:54:56;100162.59;;;20.70;43.64
56632;BME280;42503;39.928;-75.152;2023-01-20T01:04:57;100139.31;;;20.66;43.34
56632;BME280;42503;39.928;-75.152;2023-01-20T01:14:58;100109.34;;;20.63;43.21
56632;BME280;42503;39.928;-75.152;2023-01-20T01:25:02;100089.66;;;20.60;43.25
56632;BME280;42503;39.928;-75.152;2023-01-20T01:35:04;100123.47;;;20.43;43.88
56632;BME280;42503;39.928;-75.152;2023-01-20T01:55:15;100183.25;;;20.40;44.26
56632;BME280;42503;39.928;-75.152;2023-01-20T02:05:18;100191.28;;;20.42;44.24
56632;BME280;42503;39.928;-75.152;2023-01-20T02:15:25;100129.56;;;20.45;44.36
56632;BME280;42503;39.928;-75.152;2023-01-20T02:46:20;100145.00;;;20.56;43.75
56632;BME280;42503;39.928;-75.152;2023-01-20T02:56:26;100121.59;;;20.62;43.63
56632;BME280;42503;39.928;-75.152;2023-01-20T03:06:35;100143.97;;;20.71;43.71
56632;BME280;42503;39.928;-75.152;2023-01-20T03:16:39;100145.34;;;20.73;43.54
56632;BME280;42503;39.928;-75.152;2023-01-20T03:26:43;100140.59;;;20.74;43.10
56632;BME280;42503;39.928;-75.152;2023-01-20T03:36:48;100119.19;;;20.74;43.16
56632;BME280;42503;39.928;-75.152;2023-01-20T03:56:58;100074.03;;;20.64;43.24
56632;BME280;42503;39.928;-75.152;2023-01-20T04:07:08;100088.31;;;20.76;43.06
56632;BME280;42503;39.928;-75.152;2023-01-20T04:17:14;100091.38;;;20.74;43.04
56632;BME280;42503;39.928;-75.152;2023-01-20T04:27:18;100067.41;;;20.60;42.92
56632;BME280;42503;39.928;-75.152;2023-01-20T04:37:19;100106.50;;;20.68;42.86
56632;BME280;42503;39.928;-75.152;2023-01-20T04:47:20;100103.16;;;20.66;42.84
56632;BME280;42503;39.928;-75.152;2023-01-20T04:57:22;100129.63;;;20.64;42.95
56632;BME280;42503;39.928;-75.152;2023-01-20T05:07:26;100138.28;;;20.62;42.52
56632;BME280;42503;39.928;-75.152;2023-01-20T05:17:27;100161.63;;;20.61;42.91
56632;BME280;42503;39.928;-75.152;2023-01-20T05:27:38;100166.66;;;20.59;42.81
56632;BME280;42503;39.928;-75.152;2023-01-20T05:37:39;100262.28;;;20.58;42.76
56632;BME280;42503;39.928;-75.152;2023-01-20T05:47:41;100208.41;;;20.54;42.49
56632;BME280;42503;39.928;-75.152;2023-01-20T05:57:42;100180.63;;;20.54;42.82
56632;BME280;42503;39.928;-75.152;2023-01-20T06:07:47;100170.09;;;20.51;42.75
56632;BME280;42503;39.928;-75.152;2023-01-20T06:17:54;100164.56;;;20.46;42.80
56632;BME280;42503;39.928;-75.152;2023-01-20T06:27:55;100177.31;;;20.47;42.49
56632;BME280;42503;39.928;-75.152;2023-01-20T06:37:57;100234.03;;;20.46;42.78
56632;BME280;42503;39.928;-75.152;2023-01-20T06:48:01;100197.59;;;20.23;42.58
56632;BME280;42503;39.928;-75.152;2023-01-20T06:58:03;100234.63;;;20.43;42.36
56632;BME280;42503;39.928;-75.152;2023-01-20T07:08:05;100228.72;;;20.25;42.58
56632;BME280;42503;39.928;-75.152;2023-01-20T07:18:06;100241.94;;;20.34;42.24
56632;BME280;42503;39.928;-75.152;2023-01-20T07:28:11;100240.28;;;20.33;42.15
56632;BME280;42503;39.928;-75.152;2023-01-20T07:38:12;100239.72;;;20.36;42.36
56632;BME280;42503;39.928;-75.152;2023-01-20T07:48:14;100255.84;;;20.34;42.38
56632;BME280;42503;39.928;-75.152;2023-01-20T07:58:15;100255.31;;;20.31;42.41
56632;BME280;42503;39.928;-75.152;2023-01-20T08:08:21;100236.16;;;20.30;42.18
56632;BME280;42503;39.928;-75.152;2023-01-20T08:18:25;100245.91;;;20.27;42.47
56632;BME280;42503;39.928;-75.152;2023-01-20T08:28:30;100240.41;;;20.22;42.32
56632;BME280;42503;39.928;-75.152;2023-01-20T08:38:33;100254.28;;;20.22;42.22
56632;BME280;42503;39.928;-75.152;2023-01-20T08:48:39;100254.97;;;20.09;42.35
56632;BME280;42503;39.928;-75.152;2023-01-20T08:58:43;100258.31;;;20.06;42.46
56632;BME280;42503;39.928;-75.152;2023-01-20T09:08:45;100285.69;;;20.23;43.01
56632;BME280;42503;39.928;-75.152;2023-01-20T09:18:46;100281.78;;;20.24;42.50
56632;BME280;42503;39.928;-75.152;2023-01-20T09:28:53;100275.97;;;20.20;42.26
56632;BME280;42503;39.928;-75.152;2023-01-20T09:38:55;100296.41;;;20.35;41.80
56632;BME280;42503;39.928;-75.152;2023-01-20T09:49:33;100285.00;;;20.36;41.61
56632;BME280;42503;39.928;-75.152;2023-01-20T10:00:02;100277.53;;;20.31;41.63
56632;BME280;42503;39.928;-75.152;2023-01-20T10:21:12;100294.03;;;20.52;41.50
56632;BME280;42503;39.928;-75.152;2023-01-20T10:31:37;100304.56;;;20.55;41.59
56632;BME280;42503;39.928;-75.152;2023-01-20T10:41:49;100322.56;;;20.63;41.37
56632;BME280;42503;39.928;-75.152;2023-01-20T10:52:13;100322.56;;;20.63;41.60
56632;BME280;42503;39.928;-75.152;2023-01-20T11:02:25;100322.22;;;20.69;41.38
56632;BME280;42503;39.928;-75.152;2023-01-20T11:12:29;100338.31;;;20.72;41.32
56632;BME280;42503;39.928;-75.152;2023-01-20T11:22:39;100338.06;;;20.69;41.32
56632;BME280;42503;39.928;-75.152;2023-01-20T11:32:45;100332.38;;;20.55;41.26
56632;BME280;42503;39.928;-75.152;2023-01-20T11:42:48;100376.34;;;20.77;41.50
56632;BME280;42503;39.928;-75.152;2023-01-20T11:52:50;100387.47;;;20.77;41.43
56632;BME280;42503;39.928;-75.152;2023-01-20T12:02:59;100376.69;;;20.70;41.54
56632;BME280;42503;39.928;-75.152;2023-01-20T12:13:12;100381.72;;;20.68;40.97
56632;BME280;42503;39.928;-75.152;2023-01-20T12:23:49;100410.59;;;20.72;41.39
56632;BME280;42503;39.928;-75.152;2023-01-20T12:34:04;100410.84;;;20.76;41.02
56632;BME280;42503;39.928;-75.152;2023-01-20T12:44:22;100420.84;;;20.77;40.87
56632;BME280;42503;39.928;-75.152;2023-01-20T12:54:56;100426.22;;;20.68;40.94
56632;BME280;42503;39.928;-75.152;2023-01-20T13:15:20;100457.31;;;20.70;40.93
56632;BME280;42503;39.928;-75.152;2023-01-20T13:25:31;100467.91;;;20.68;40.89
56632;BME280;42503;39.928;-75.152;2023-01-20T13:35:40;100480.97;;;20.68;40.69
56632;BME280;42503;39.928;-75.152;2023-01-20T13:45:43;100485.16;;;20.65;40.84
56632;BME280;42503;39.928;-75.152;2023-01-20T13:55:54;100499.41;;;20.59;40.67
56632;BME280;42503;39.928;-75.152;2023-01-20T14:05:59;100518.34;;;20.51;40.94
56632;BME280;42503;39.928;-75.152;2023-01-20T14:16:01;100536.44;;;20.49;40.86
56632;BME280;42503;39.928;-75.152;2023-01-20T14:26:33;100541.44;;;20.42;41.35
56632;BME280;42503;39.928;-75.152;2023-01-20T14:36:34;100538.16;;;20.35;41.42
56632;BME280;42503;39.928;-75.152;2023-01-20T14:46:36;100529.59;;;20.26;41.45
56632;BME280;42503;39.928;-75.152;2023-01-20T14:56:46;100557.06;;;20.33;41.55
56632;BME280;42503;39.928;-75.152;2023-01-20T15:07:17;100573.44;;;20.34;41.80
56632;BME280;42503;39.928;-75.152;2023-01-20T15:17:19;100583.13;;;20.42;41.54
56632;BME280;42503;39.928;-75.152;2023-01-20T15:27:24;100597.59;;;20.44;41.66
56632;BME280;42503;39.928;-75.152;2023-01-20T15:37:26;100563.16;;;20.40;41.52
56632;BME280;42503;39.928;-75.152;2023-01-20T15:47:31;100589.78;;;20.51;41.44
56632;BME280;42503;39.928;-75.152;2023-01-20T15:57:34;100580.31;;;20.52;41.77
56632;BME280;42503;39.928;-75.152;2023-01-20T16:07:36;100579.16;;;20.63;41.35
56632;BME280;42503;39.928;-75.152;2023-01-20T16:17:37;100543.63;;;20.55;41.31
56632;BME280;42503;39.928;-75.152;2023-01-20T16:27:38;100583.00;;;20.72;41.25
56632;BME280;42503;39.928;-75.152;2023-01-20T16:37:40;100592.94;;;20.78;41.39
56632;BME280;42503;39.928;-75.152;2023-01-20T16:47:42;100593.72;;;20.89;41.40
56632;BME280;42503;39.928;-75.152;2023-01-20T16:57:43;100491.97;;;20.39;41.26
56632;BME280;42503;39.928;-75.152;2023-01-20T17:07:48;100525.47;;;20.68;41.30
56632;BME280;42503;39.928;-75.152;2023-01-20T17:17:55;100607.94;;;21.22;41.17
56632;BME280;42503;39.928;-75.152;2023-01-20T17:27:58;100612.03;;;21.29;41.42
56632;BME280;42503;39.928;-75.152;2023-01-20T17:37:59;100616.19;;;21.37;41.31
56632;BME280;42503;39.928;-75.152;2023-01-20T17:48:00;100619.75;;;21.43;41.38
56632;BME280;42503;39.928;-75.152;2023-01-20T17:58:02;100624.16;;;21.49;41.47
56632;BME280;42503;39.928;-75.152;2023-01-20T18:08:06;100649.16;;;21.54;41.53
56632;BME280;42503;39.928;-75.152;2023-01-20T18:18:07;100654.75;;;21.54;41.46
56632;BME280;42503;39.928;-75.152;2023-01-20T18:28:09;100666.97;;;21.58;41.56
56632;BME280;42503;39.928;-75.152;2023-01-20T18:38:13;100676.91;;;21.64;41.37
56632;BME280;42503;39.928;-75.152;2023-01-20T18:48:14;100668.00;;;21.62;41.10
56632;BME280;42503;39.928;-75.152;2023-01-20T18:58:16;100685.78;;;21.66;41.17
56632;BME280;42503;39.928;-75.152;2023-01-20T19:08:17;100661.53;;;21.38;41.23
56632;BME280;42503;39.928;-75.152;2023-01-20T19:18:19;100716.50;;;21.56;41.73
56632;BME280;42503;39.928;-75.152;2023-01-20T19:28:20;100727.69;;;21.51;41.66
56632;BME280;42503;39.928;-75.152;2023-01-20T19:38:21;100749.97;;;21.51;42.05
56632;BME280;42503;39.928;-75.152;2023-01-20T19:48:25;100787.28;;;21.50;42.46
56632;BME280;42503;39.928;-75.152;2023-01-20T19:58:30;100799.28;;;21.45;42.86
56632;BME280;42503;39.928;-75.152;2023-01-20T20:08:32;100820.13;;;21.48;42.34
56632;BME280;42503;39.928;-75.152;2023-01-20T20:18:41;100789.31;;;21.34;42.12
56632;BME280;42503;39.928;-75.152;2023-01-20T20:28:46;100847.91;;;21.63;41.98
56632;BME280;42503;39.928;-75.152;2023-01-20T20:38:48;100873.47;;;21.70;41.96
56632;BME280;42503;39.928;-75.152;2023-01-20T20:48:55;100891.28;;;21.74;41.93
56632;BME280;42503;39.928;-75.152;2023-01-20T20:59:00;100905.47;;;21.78;41.67
56632;BME280;42503;39.928;-75.152;2023-01-20T21:09:01;100922.47;;;21.76;41.83
56632;BME280;42503;39.928;-75.152;2023-01-20T21:19:03;100941.06;;;21.86;41.58
56632;BME280;42503;39.928;-75.152;2023-01-20T21:29:09;100935.84;;;21.74;41.58
56632;BME280;42503;39.928;-75.152;2023-01-20T21:39:12;100976.44;;;21.91;41.92
56632;BME280;42503;39.928;-75.152;2023-01-20T21:49:14;100982.31;;;21.84;41.47
56632;BME280;42503;39.928;-75.152;2023-01-20T21:59:34;101027.94;;;21.93;41.52
56632;BME280;42503;39.928;-75.152;2023-01-20T22:09:35;101049.97;;;21.95;41.41
56632;BME280;42503;39.928;-75.152;2023-01-20T22:19:41;101043.59;;;21.84;41.23
56632;BME280;42503;39.928;-75.152;2023-01-20T22:29:43;101078.66;;;21.95;41.45
56632;BME280;42503;39.928;-75.152;2023-01-20T22:39:45;101086.78;;;21.87;41.84
56632;BME280;42503;39.928;-75.152;2023-01-20T22:49:48;101117.41;;;21.92;42.19
56632;BME280;42503;39.928;-75.152;2023-01-20T22:59:52;101142.44;;;21.97;42.28
56632;BME280;42503;39.928;-75.152;2023-01-20T23:09:56;101150.81;;;21.97;41.84
56632;BME280;42503;39.928;-75.152;2023-01-20T23:19:58;101138.03;;;21.80;41.76
56632;BME280;42503;39.928;-75.152;2023-01-20T23:29:59;101150.88;;;21.81;42.02
56632;BME280;42503;39.928;-75.152;2023-01-20T23:40:00;101187.34;;;21.90;41.92
56632;BME280;42503;39.928;-75.152;2023-01-20T23:50:05;101215.44;;;21.94;41.45
